Time;durP1;ratioP1;P1;durP2;ratioP2;P2;SDS_P1;SDS_P2;PMS_P1;PMS_P2;Temp;Humidity;BMP_temperature;BMP_pressure;BME280_temperature;BME280_humidity;BME280_pressure;Samples;Min_cycle;Max_cycle;Signal;HPM_P1;HPM_P2
2024/02/16 00:02:03;;;;;;;1.65;1.00;;;;;;;;;;10414225;28;20152;-73
2024/02/16 00:07:08;;;;;;;1.63;1.27;;;;;;;;;;10411722;28;20041;-73
2024/02/16 00:12:11;;;;;;;2.28;1.10;;;;;;;;;;10413425;28;20167;-73
2024/02/16 00:17:14;;;;;;;2.63;1.02;;;;;;;;;;10408793;28;20033;-73
2024/02/16 00:22:19;;;;;;;2.45;1.02;;;;;;;;;;10407235;28;20050;-73
2024/02/16 00:27:22;;;;;;;1.52;1.00;;;;;;;;;;10407338;28;20048;-73
2024/02/16 00:32:30;;;;;;;2.72;1.10;;;;;;;;;;10409702;28;20053;-73
2024/02/16 00:37:34;;;;;;;1.83;0.90;;;;;;;;;;10412991;28;20107;-73
2024/02/16 00:42:38;;;;;;;0.95;0.73;;;;;;;;;;10409909;28;20078;-73
2024/02/16 00:47:41;;;;;;;2.33;1.10;;;;;;;;;;10409583;28;20124;-74
2024/02/16 00:52:45;;;;;;;2.60;1.15;;;;;;;;;;10394637;28;20132;-73
2024/02/16 00:57:49;;;;;;;1.60;0.90;;;;;;;;;;10410083;28;20124;-73
2024/02/16 01:02:53;;;;;;;1.85;1.10;;;;;;;;;;10401197;28;20055;-73
2024/02/16 01:07:58;;;;;;;2.78;0.90;;;;;;;;;;10412509;28;20037;-73
2024/02/16 01:13:01;;;;;;;0.93;0.70;;;;;;;;;;10411664;28;20045;-73
2024/02/16 01:18:06;;;;;;;1.00;0.70;;;;;;;;;;10410708;28;20044;-73
2024/02/16 01:23:11;;;;;;;2.05;0.73;;;;;;;;;;10410305;28;20072;-73
2024/02/16 01:28:14;;;;;;;1.95;0.77;;;;;;;;;;10413001;28;21858;-73
2024/02/16 01:33:17;;;;;;;2.03;0.80;;;;;;;;;;10417598;28;20045;-73
2024/02/16 01:38:22;;;;;;;2.17;1.00;;;;;;;;;;10422680;28;20618;-73
2024/02/16 01:43:26;;;;;;;2.25;0.82;;;;;;;;;;10412319;28;20167;-73
2024/02/16 01:48:30;;;;;;;1.33;0.90;;;;;;;;;;10415898;28;20040;-73
2024/02/16 01:53:36;;;;;;;3.70;1.27;;;;;;;;;;10393885;28;20080;-73
2024/02/16 01:58:39;;;;;;;4.85;1.40;;;;;;;;;;10413940;28;20038;-73
2024/02/16 02:03:42;;;;;;;2.13;1.00;;;;;;;;;;10421617;28;20488;-73
2024/02/16 02:08:47;;;;;;;1.20;0.70;;;;;;;;;;10418380;28;20036;-73
2024/02/16 02:13:50;;;;;;;1.15;0.80;;;;;;;;;;10411713;28;20043;-73
2024/02/16 02:18:54;;;;;;;1.48;0.75;;;;;;;;;;10430568;28;20045;-73
2024/02/16 02:23:58;;;;;;;0.50;0.50;;;;;;;;;;10417375;28;20064;-73
2024/02/16 02:29:02;;;;;;;0.85;0.60;;;;;;;;;;10434302;28;20041;-73
2024/02/16 02:34:06;;;;;;;1.33;0.65;;;;;;;;;;10418341;28;20143;-73
2024/02/16 02:39:10;;;;;;;0.88;0.60;;;;;;;;;;10424468;28;20536;-73
2024/02/16 02:44:14;;;;;;;2.05;0.90;;;;;;;;;;10416003;28;20055;-73
2024/02/16 02:49:17;;;;;;;1.15;0.85;;;;;;;;;;10412418;28;20049;-73
2024/02/16 02:54:22;;;;;;;0.90;0.80;;;;;;;;;;10422143;28;20037;-73
2024/02/16 02:59:25;;;;;;;0.82;0.75;;;;;;;;;;10419677;28;20123;-73
2024/02/16 03:04:28;;;;;;;1.50;0.90;;;;;;;;;;10400902;28;20045;-73
2024/02/16 03:09:33;;;;;;;1.30;0.82;;;;;;;;;;10416122;28;20462;-73
2024/02/16 03:14:37;;;;;;;2.15;0.98;;;;;;;;;;10418680;28;20044;-74
2024/02/16 03:19:40;;;;;;;2.00;0.70;;;;;;;;;;10415499;28;20048;-74
2024/02/16 03:24:45;;;;;;;1.48;1.05;;;;;;;;;;10411964;28;20099;-74
2024/02/16 03:29:49;;;;;;;1.33;1.00;;;;;;;;;;10418936;28;20054;-73
2024/02/16 03:34:52;;;;;;;1.33;0.80;;;;;;;;;;10415130;28;20461;-73
2024/02/16 03:39:57;;;;;;;1.70;1.23;;;;;;;;;;10404070;28;20566;-74
2024/02/16 03:45:00;;;;;;;1.77;1.02;;;;;;;;;;10394202;28;20064;-74
2024/02/16 03:50:04;;;;;;;1.35;0.95;;;;;;;;;;10415017;28;20045;-74
2024/02/16 03:55:09;;;;;;;3.00;1.08;;;;;;;;;;10397269;28;20096;-73
2024/02/16 04:00:14;;;;;;;1.88;0.80;;;;;;;;;;10428707;28;20041;-73
2024/02/16 04:05:17;;;;;;;2.28;1.10;;;;;;;;;;10417782;28;20053;-74
2024/02/16 04:10:21;;;;;;;0.98;0.70;;;;;;;;;;10417073;28;20044;-74
2024/02/16 04:15:24;;;;;;;1.10;0.90;;;;;;;;;;10408842;28;20734;-73
2024/02/16 04:20:28;;;;;;;1.52;1.02;;;;;;;;;;10408951;28;20045;-74
2024/02/16 04:25:32;;;;;;;1.40;0.85;;;;;;;;;;10409628;28;20072;-74
2024/02/16 04:30:35;;;;;;;0.95;0.80;;;;;;;;;;10403519;28;20037;-74
2024/02/16 04:35:39;;;;;;;1.30;0.85;;;;;;;;;;10410840;28;20045;-74
2024/02/16 04:40:44;;;;;;;3.00;1.05;;;;;;;;;;10409111;28;20036;-74
2024/02/16 04:45:47;;;;;;;1.80;1.10;;;;;;;;;;10413377;28;20048;-74
2024/02/16 04:50:51;;;;;;;2.20;1.00;;;;;;;;;;10404272;28;20067;-74
2024/02/16 04:55:55;;;;;;;1.70;1.05;;;;;;;;;;10410908;28;20140;-74
2024/02/16 05:00:59;;;;;;;2.08;1.10;;;;;;;;;;10410207;28;20037;-74
2024/02/16 05:06:02;;;;;;;1.45;0.98;;;;;;;;;;10423407;28;20060;-74
2024/02/16 05:11:08;;;;;;;1.58;1.10;;;;;;;;;;10444021;22;20028;-72
2024/02/16 05:16:11;;;;;;;1.25;0.95;;;;;;;;;;10360091;28;20080;-73
2024/02/16 05:21:14;;;;;;;1.23;0.90;;;;;;;;;;10360344;28;20670;-72
2024/02/16 05:26:20;;;;;;;1.30;1.00;;;;;;;;;;10371341;28;20127;-73
2024/02/16 05:31:23;;;;;;;2.73;1.30;;;;;;;;;;10364683;28;20057;-75
2024/02/16 05:36:30;;;;;;;3.20;1.35;;;;;;;;;;10363385;28;20349;-74
2024/02/16 05:41:36;;;;;;;1.35;1.08;;;;;;;;;;10370832;28;20271;-75
2024/02/16 05:46:39;;;;;;;1.88;0.98;;;;;;;;;;10381982;28;20491;-74
2024/02/16 05:52:00;;;;;;;1.90;1.30;;;;;;;;;;10367174;28;20046;-74
2024/02/16 05:57:05;;;;;;;3.10;1.48;;;;;;;;;;10370722;28;20057;-75
2024/02/16 06:02:10;;;;;;;3.08;1.50;;;;;;;;;;10386375;28;20033;-75
2024/02/16 06:07:14;;;;;;;4.90;1.13;;;;;;;;;;10367398;28;20046;-75
2024/02/16 06:12:18;;;;;;;2.53;1.30;;;;;;;;;;10369657;28;20045;-74
2024/02/16 06:17:22;;;;;;;2.70;1.42;;;;;;;;;;10357552;28;20046;-74
2024/02/16 06:22:25;;;;;;;2.53;1.40;;;;;;;;;;10358077;28;20714;-74
2024/02/16 06:27:29;;;;;;;3.58;1.67;;;;;;;;;;10371129;28;20054;-74
2024/02/16 06:32:33;;;;;;;2.13;1.30;;;;;;;;;;10368860;28;20045;-72
2024/02/16 06:37:37;;;;;;;2.35;1.30;;;;;;;;;;10368603;28;20533;-72
2024/02/16 06:42:41;;;;;;;1.30;1.05;;;;;;;;;;10367844;28;20478;-72
2024/02/16 06:47:45;;;;;;;3.47;1.30;;;;;;;;;;10367548;28;20080;-72
2024/02/16 06:52:48;;;;;;;2.58;1.35;;;;;;;;;;10369510;28;20041;-73
2024/02/16 06:57:52;;;;;;;6.57;4.75;;;;;;;;;;10366998;28;20042;-73
2024/02/16 07:02:55;;;;;;;16.85;15.00;;;;;;;;;;10369278;28;20585;-72
2024/02/16 07:07:59;;;;;;;8.15;6.70;;;;;;;;;;10364261;28;20041;-72
2024/02/16 07:13:04;;;;;;;4.90;3.22;;;;;;;;;;10366963;28;20048;-73
2024/02/16 07:18:07;;;;;;;2.17;1.73;;;;;;;;;;10362572;28;20048;-72
2024/02/16 07:23:11;;;;;;;1.90;1.55;;;;;;;;;;10360274;28;20038;-72
2024/02/16 07:28:16;;;;;;;4.78;1.55;;;;;;;;;;10366142;28;20042;-73
2024/02/16 07:33:19;;;;;;;1.75;1.23;;;;;;;;;;10369438;28;20056;-72
2024/02/16 07:38:23;;;;;;;2.42;1.30;;;;;;;;;;10383282;28;20128;-72
2024/02/16 07:43:28;;;;;;;2.65;1.17;;;;;;;;;;10369904;28;20583;-72
2024/02/16 07:48:31;;;;;;;1.70;1.20;;;;;;;;;;10368854;28;20057;-72
2024/02/16 07:53:36;;;;;;;1.73;1.13;;;;;;;;;;10376425;28;20045;-74
2024/02/16 07:58:43;;;;;;;1.83;1.35;;;;;;;;;;10363853;28;20048;-74
2024/02/16 08:03:46;;;;;;;1.65;1.08;;;;;;;;;;10369020;28;20046;-74
2024/02/16 08:08:49;;;;;;;5.13;1.70;;;;;;;;;;10370470;28;20048;-74
2024/02/16 08:13:55;;;;;;;2.25;1.63;;;;;;;;;;10364056;28;20048;-74
2024/02/16 08:18:58;;;;;;;2.90;1.92;;;;;;;;;;10382493;28;20046;-74
2024/02/16 08:24:02;;;;;;;3.22;2.03;;;;;;;;;;10365671;28;20530;-74
2024/02/16 08:29:07;;;;;;;4.03;1.88;;;;;;;;;;10362391;28;20123;-74
2024/02/16 08:34:10;;;;;;;2.00;1.45;;;;;;;;;;10357510;28;20046;-74
2024/02/16 08:39:14;;;;;;;2.22;1.52;;;;;;;;;;10365707;28;20472;-74
2024/02/16 08:44:18;;;;;;;3.20;1.48;;;;;;;;;;10363746;28;20049;-74
2024/02/16 08:49:22;;;;;;;2.17;1.30;;;;;;;;;;10364607;28;20503;-74
2024/02/16 08:54:25;;;;;;;1.27;1.13;;;;;;;;;;10360797;28;20424;-74
2024/02/16 08:59:30;;;;;;;1.55;1.13;;;;;;;;;;10363241;28;20045;-74
2024/02/16 09:04:33;;;;;;;2.20;1.05;;;;;;;;;;10353419;28;20049;-74
2024/02/16 09:09:36;;;;;;;3.35;1.52;;;;;;;;;;10365987;28;20072;-74
2024/02/16 09:14:41;;;;;;;2.95;1.60;;;;;;;;;;10363885;28;20128;-74
2024/02/16 09:19:44;;;;;;;1.70;1.25;;;;;;;;;;10364798;28;20064;-74
2024/02/16 09:24:47;;;;;;;4.88;1.33;;;;;;;;;;10356927;28;20458;-74
2024/02/16 09:29:52;;;;;;;1.65;1.25;;;;;;;;;;10362193;28;20049;-74
2024/02/16 09:34:55;;;;;;;1.90;1.40;;;;;;;;;;10365348;28;20630;-74
2024/02/16 09:39:59;;;;;;;2.97;1.23;;;;;;;;;;10364043;28;20538;-74
2024/02/16 09:45:04;;;;;;;1.90;1.17;;;;;;;;;;10359221;28;20137;-74
2024/02/16 09:50:09;;;;;;;1.77;1.17;;;;;;;;;;10368222;28;20045;-74
2024/02/16 09:55:14;;;;;;;2.58;1.40;;;;;;;;;;10375822;28;20053;-74
2024/02/16 10:00:21;;;;;;;3.45;2.20;;;;;;;;;;10360605;28;20050;-74
2024/02/16 10:05:25;;;;;;;3.15;1.90;;;;;;;;;;10363790;28;20088;-75
2024/02/16 10:10:30;;;;;;;3.05;1.25;;;;;;;;;;10372323;28;20034;-74
2024/02/16 10:15:35;;;;;;;2.57;1.70;;;;;;;;;;10364069;28;20058;-74
2024/02/16 10:20:41;;;;;;;2.83;1.57;;;;;;;;;;10367736;28;20038;-74
2024/02/16 10:25:44;;;;;;;2.10;1.17;;;;;;;;;;10377382;28;20068;-74
2024/02/16 10:30:49;;;;;;;2.25;1.30;;;;;;;;;;10364429;28;20519;-74
2024/02/16 10:35:53;;;;;;;3.47;1.30;;;;;;;;;;10367276;28;20104;-74
2024/02/16 10:40:59;;;;;;;4.18;1.50;;;;;;;;;;10365780;28;20068;-74
2024/02/16 10:46:06;;;;;;;1.40;1.00;;;;;;;;;;10368243;28;21240;-73
2024/02/16 10:51:10;;;;;;;2.40;1.08;;;;;;;;;;10363973;28;20057;-72
2024/02/16 10:56:14;;;;;;;2.10;0.98;;;;;;;;;;10366260;28;20096;-72
2024/02/16 11:01:19;;;;;;;2.95;1.20;;;;;;;;;;10370556;28;20050;-72
2024/02/16 11:06:22;;;;;;;3.35;1.38;;;;;;;;;;10371829;28;20507;-72
2024/02/16 11:11:26;;;;;;;1.88;1.35;;;;;;;;;;10380990;23;20420;-73
2024/02/16 11:16:30;;;;;;;2.58;1.70;;;;;;;;;;10313046;28;20543;-73
2024/02/16 11:21:34;;;;;;;3.83;1.77;;;;;;;;;;10321378;28;20069;-73
2024/02/16 11:26:44;;;;;;;3.22;1.30;;;;;;;;;;10316093;28;20050;-73
2024/02/16 11:31:48;;;;;;;4.35;1.83;;;;;;;;;;10313109;28;20505;-73
2024/02/16 11:36:54;;;;;;;3.80;1.65;;;;;;;;;;10317856;28;20042;-73
2024/02/16 11:42:03;;;;;;;3.25;1.60;;;;;;;;;;10315766;28;20066;-73
2024/02/16 11:47:12;;;;;;;3.25;1.70;;;;;;;;;;10316031;28;20516;-73
2024/02/16 11:52:15;;;;;;;3.50;1.70;;;;;;;;;;10318830;28;20045;-73
2024/02/16 11:57:19;;;;;;;7.10;1.65;;;;;;;;;;10315341;28;20046;-73
2024/02/16 12:02:25;;;;;;;3.53;1.40;;;;;;;;;;10316637;28;20688;-73
2024/02/16 12:07:29;;;;;;;4.22;1.73;;;;;;;;;;10311776;28;20686;-73
2024/02/16 12:12:32;;;;;;;5.18;1.77;;;;;;;;;;10315542;28;21654;-73
2024/02/16 12:17:37;;;;;;;5.30;1.55;;;;;;;;;;10313532;28;20066;-73
2024/02/16 12:22:40;;;;;;;3.75;1.60;;;;;;;;;;10313776;28;20042;-73
2024/02/16 12:27:44;;;;;;;2.90;1.23;;;;;;;;;;10322496;28;20207;-73
2024/02/16 12:32:48;;;;;;;2.60;1.67;;;;;;;;;;10318909;28;20538;-73
2024/02/16 12:37:52;;;;;;;3.30;1.65;;;;;;;;;;10298410;28;20048;-73
2024/02/16 12:42:55;;;;;;;3.20;1.38;;;;;;;;;;10297073;28;20128;-73
2024/02/16 12:47:59;;;;;;;2.88;1.25;;;;;;;;;;10307141;28;20058;-73
2024/02/16 12:53:03;;;;;;;2.40;1.15;;;;;;;;;;10315443;28;20085;-73
2024/02/16 12:58:06;;;;;;;3.10;1.42;;;;;;;;;;10312270;28;20577;-73
2024/02/16 13:03:11;;;;;;;3.13;1.48;;;;;;;;;;10325084;28;20054;-73
2024/02/16 13:08:15;;;;;;;3.55;1.30;;;;;;;;;;10301463;28;20054;-73
2024/02/16 13:13:18;;;;;;;4.90;1.70;;;;;;;;;;10318989;28;20062;-73
2024/02/16 13:18:23;;;;;;;5.15;2.38;;;;;;;;;;10306071;28;20054;-74
2024/02/16 13:23:28;;;;;;;5.28;2.72;;;;;;;;;;10314609;28;20038;-74
2024/02/16 13:28:33;;;;;;;5.65;2.58;;;;;;;;;;10321748;28;20404;-74
2024/02/16 13:33:38;;;;;;;4.43;2.05;;;;;;;;;;10320985;28;20049;-74
2024/02/16 13:38:41;;;;;;;5.50;2.67;;;;;;;;;;10331948;28;20073;-74
2024/02/16 13:43:44;;;;;;;6.25;2.20;;;;;;;;;;10325084;28;20522;-74
2024/02/16 13:48:49;;;;;;;5.75;1.98;;;;;;;;;;10318982;28;20673;-73
2024/02/16 13:53:52;;;;;;;3.08;1.80;;;;;;;;;;10321829;28;20042;-74
2024/02/16 13:58:56;;;;;;;7.40;2.03;;;;;;;;;;10322732;28;20405;-73
2024/02/16 14:04:00;;;;;;;3.70;1.73;;;;;;;;;;10319750;28;20056;-73
2024/02/16 14:09:08;;;;;;;4.07;1.55;;;;;;;;;;10320385;28;20043;-73
2024/02/16 14:14:14;;;;;;;4.00;2.05;;;;;;;;;;10302689;28;20054;-74
2024/02/16 14:19:22;;;;;;;4.93;2.00;;;;;;;;;;10319251;28;20084;-73
2024/02/16 14:24:26;;;;;;;4.25;1.83;;;;;;;;;;10302960;28;20442;-73
2024/02/16 14:29:29;;;;;;;4.88;1.90;;;;;;;;;;10317441;28;20054;-73
2024/02/16 14:34:35;;;;;;;3.78;1.98;;;;;;;;;;10317812;28;20069;-73
2024/02/16 14:39:38;;;;;;;5.07;2.20;;;;;;;;;;10314557;28;20447;-73
2024/02/16 14:44:41;;;;;;;4.78;2.30;;;;;;;;;;10320292;28;20317;-73
2024/02/16 14:49:46;;;;;;;3.05;1.73;;;;;;;;;;10319152;28;20054;-73
2024/02/16 14:54:49;;;;;;;4.13;2.00;;;;;;;;;;10313719;28;20038;-73
2024/02/16 14:59:55;;;;;;;2.47;1.25;;;;;;;;;;10319465;28;20133;-73
2024/02/16 15:05:00;;;;;;;2.00;1.27;;;;;;;;;;10322319;28;20133;-73
2024/02/16 15:10:04;;;;;;;2.17;1.20;;;;;;;;;;10322922;28;20097;-74
2024/02/16 15:15:09;;;;;;;3.63;1.42;;;;;;;;;;10318700;28;20534;-74
2024/02/16 15:20:14;;;;;;;2.83;1.00;;;;;;;;;;10315848;28;20057;-74
2024/02/16 15:25:17;;;;;;;3.03;1.40;;;;;;;;;;10320332;28;20056;-74
2024/02/16 15:30:20;;;;;;;1.80;1.10;;;;;;;;;;10321307;28;20042;-74
2024/02/16 15:35:25;;;;;;;1.45;0.88;;;;;;;;;;10317724;28;20053;-74
2024/02/16 15:40:28;;;;;;;2.78;1.23;;;;;;;;;;10318319;28;20066;-74
2024/02/16 15:45:32;;;;;;;1.42;1.20;;;;;;;;;;10316707;28;20070;-73
2024/02/16 15:50:38;;;;;;;1.10;0.90;;;;;;;;;;10315099;28;20042;-74
2024/02/16 15:55:42;;;;;;;1.00;0.90;;;;;;;;;;10318722;28;20061;-73
2024/02/16 16:00:45;;;;;;;0.80;0.80;;;;;;;;;;10315560;28;20065;-73
2024/02/16 16:05:50;;;;;;;0.88;0.77;;;;;;;;;;10315277;28;20125;-73
2024/02/16 16:10:53;;;;;;;1.00;0.77;;;;;;;;;;10314559;28;20053;-73
2024/02/16 16:15:56;;;;;;;2.20;1.38;;;;;;;;;;10317740;28;20129;-73
2024/02/16 16:21:02;;;;;;;2.30;1.00;;;;;;;;;;10316753;28;20145;-73
2024/02/16 16:26:05;;;;;;;3.13;0.90;;;;;;;;;;10317226;28;20046;-73
2024/02/16 16:31:09;;;;;;;2.05;0.70;;;;;;;;;;10323780;28;20072;-73
2024/02/16 16:36:14;;;;;;;0.88;0.73;;;;;;;;;;10312529;28;20499;-73
2024/02/16 16:41:18;;;;;;;1.80;0.83;;;;;;;;;;10315774;28;20054;-73
2024/02/16 16:46:21;;;;;;;0.88;0.60;;;;;;;;;;10312580;28;20550;-73
2024/02/16 16:51:25;;;;;;;1.40;0.80;;;;;;;;;;10320886;28;20060;-73
2024/02/16 16:56:29;;;;;;;1.33;1.00;;;;;;;;;;10319912;28;20035;-73
2024/02/16 17:01:36;;;;;;;1.55;0.90;;;;;;;;;;10324110;28;20046;-73
2024/02/16 17:06:40;;;;;;;1.45;0.90;;;;;;;;;;10326295;28;20042;-73
2024/02/16 17:11:44;;;;;;;0.93;0.77;;;;;;;;;;10322835;28;20042;-73
2024/02/16 17:16:47;;;;;;;1.65;0.95;;;;;;;;;;10320889;28;20121;-73
2024/02/16 17:21:51;;;;;;;1.02;0.90;;;;;;;;;;10332964;28;20049;-73
2024/02/16 17:26:55;;;;;;;2.35;1.13;;;;;;;;;;10317450;28;20074;-73
2024/02/16 17:31:58;;;;;;;0.88;0.75;;;;;;;;;;10326149;28;20121;-73
2024/02/16 17:37:03;;;;;;;1.05;0.80;;;;;;;;;;10330497;28;20046;-73
2024/02/16 17:42:06;;;;;;;2.08;1.88;;;;;;;;;;10324644;28;20050;-73
2024/02/16 17:47:10;;;;;;;2.33;1.65;;;;;;;;;;10323878;28;20124;-73
2024/02/16 17:52:14;;;;;;;1.90;1.13;;;;;;;;;;10305730;28;20059;-73
2024/02/16 17:57:20;;;;;;;2.53;1.15;;;;;;;;;;10319360;28;20607;-73
2024/02/16 18:02:24;;;;;;;3.00;1.65;;;;;;;;;;10322905;28;20042;-73
2024/02/16 18:07:29;;;;;;;1.30;0.93;;;;;;;;;;10323172;28;20073;-73
2024/02/16 18:12:32;;;;;;;1.52;1.00;;;;;;;;;;10323705;28;20046;-74
2024/02/16 18:17:36;;;;;;;1.00;0.73;;;;;;;;;;10321527;28;20030;-73
2024/02/16 18:22:40;;;;;;;1.20;0.68;;;;;;;;;;10323555;28;20043;-74
2024/02/16 18:27:44;;;;;;;1.17;0.90;;;;;;;;;;10323221;28;20034;-74
2024/02/16 18:32:47;;;;;;;1.35;1.10;;;;;;;;;;10324687;28;20805;-74
2024/02/16 18:37:51;;;;;;;3.45;1.60;;;;;;;;;;10321307;28;20052;-73
2024/02/16 18:42:55;;;;;;;1.67;1.23;;;;;;;;;;10316398;28;20042;-73
2024/02/16 18:47:58;;;;;;;2.30;1.20;;;;;;;;;;10328848;28;20336;-73
2024/02/16 18:53:03;;;;;;;1.85;1.20;;;;;;;;;;10327462;28;20043;-73
2024/02/16 18:58:06;;;;;;;1.23;0.90;;;;;;;;;;10303357;28;20042;-73
2024/02/16 19:03:09;;;;;;;2.42;0.80;;;;;;;;;;10319079;28;20046;-73
2024/02/16 19:08:14;;;;;;;1.75;1.52;;;;;;;;;;10320494;28;20057;-73
2024/02/16 19:13:17;;;;;;;4.18;1.92;;;;;;;;;;10318699;28;20042;-74
2024/02/16 19:18:20;;;;;;;3.35;1.75;;;;;;;;;;10303044;28;20050;-73
2024/02/16 19:23:25;;;;;;;3.15;1.98;;;;;;;;;;10321497;28;20060;-73
2024/02/16 19:28:28;;;;;;;3.08;1.88;;;;;;;;;;10322003;28;20034;-74
2024/02/16 19:33:32;;;;;;;3.08;1.90;;;;;;;;;;10320273;28;20042;-73
2024/02/16 19:38:36;;;;;;;2.53;1.90;;;;;;;;;;10324003;28;20476;-73
2024/02/16 19:43:40;;;;;;;2.28;1.65;;;;;;;;;;10322732;28;20042;-73
2024/02/16 19:48:43;;;;;;;2.03;1.83;;;;;;;;;;10315307;28;20062;-73
2024/02/16 19:53:48;;;;;;;0.73;0.73;;;;;;;;;;10318890;28;20124;-73
2024/02/16 19:58:51;;;;;;;0.40;0.40;;;;;;;;;;10321281;28;20545;-73
2024/02/16 20:03:54;;;;;;;0.50;0.50;;;;;;;;;;10305523;28;20050;-73
2024/02/16 20:08:59;;;;;;;0.50;0.50;;;;;;;;;;10310490;28;20062;-73
2024/02/16 20:14:02;;;;;;;0.50;0.40;;;;;;;;;;10314839;28;20053;-73
2024/02/16 20:19:06;;;;;;;1.25;0.65;;;;;;;;;;10321689;28;20050;-73
2024/02/16 20:24:12;;;;;;;0.80;0.70;;;;;;;;;;10300000;28;20054;-73
2024/02/16 20:29:16;;;;;;;1.27;0.93;;;;;;;;;;10319465;28;20081;-73
2024/02/16 20:34:19;;;;;;;1.17;0.80;;;;;;;;;;10327008;28;20268;-73
2024/02/16 20:39:24;;;;;;;0.47;0.47;;;;;;;;;;10316569;28;20079;-73
2024/02/16 20:44:27;;;;;;;0.70;0.70;;;;;;;;;;10318560;28;20046;-73
2024/02/16 20:49:30;;;;;;;0.85;0.80;;;;;;;;;;10320617;28;20038;-73
2024/02/16 20:54:36;;;;;;;1.85;1.13;;;;;;;;;;10319818;28;20049;-73
2024/02/16 20:59:39;;;;;;;0.77;0.77;;;;;;;;;;10322732;28;20447;-73
2024/02/16 21:04:43;;;;;;;1.55;1.20;;;;;;;;;;10319195;28;20038;-73
2024/02/16 21:09:47;;;;;;;2.00;1.80;;;;;;;;;;10311930;28;20039;-74
2024/02/16 21:14:51;;;;;;;5.85;4.20;;;;;;;;;;10300506;28;20513;-73
2024/02/16 21:19:55;;;;;;;2.95;2.40;;;;;;;;;;10323046;28;20054;-73
2024/02/16 21:24:59;;;;;;;3.70;3.33;;;;;;;;;;10314234;28;20034;-73
2024/02/16 21:30:03;;;;;;;5.35;4.10;;;;;;;;;;10321149;28;20055;-74
2024/02/16 21:35:09;;;;;;;4.05;3.13;;;;;;;;;;10315127;28;20524;-73
2024/02/16 21:40:16;;;;;;;3.72;2.85;;;;;;;;;;10321751;28;20065;-73
2024/02/16 21:45:20;;;;;;;4.78;4.38;;;;;;;;;;10321719;28;20073;-73
2024/02/16 21:50:25;;;;;;;5.72;4.82;;;;;;;;;;10323086;28;20161;-73
2024/02/16 21:55:29;;;;;;;6.10;5.50;;;;;;;;;;10328909;28;20050;-73
2024/02/16 22:00:33;;;;;;;7.88;7.05;;;;;;;;;;10326966;28;20038;-73
2024/02/16 22:05:36;;;;;;;9.27;7.28;;;;;;;;;;10327023;28;20418;-73
2024/02/16 22:10:41;;;;;;;8.07;6.70;;;;;;;;;;10325519;28;20090;-73
2024/02/16 22:15:45;;;;;;;5.25;4.70;;;;;;;;;;10322598;28;20420;-73
2024/02/16 22:20:48;;;;;;;6.90;5.80;;;;;;;;;;10317680;28;20462;-73
2024/02/16 22:25:53;;;;;;;5.40;4.05;;;;;;;;;;10316563;28;20049;-74
2024/02/16 22:30:56;;;;;;;4.15;3.75;;;;;;;;;;10319882;28;20058;-73
2024/02/16 22:36:00;;;;;;;3.67;3.30;;;;;;;;;;10325914;28;20404;-74
2024/02/16 22:41:05;;;;;;;5.03;4.13;;;;;;;;;;10310088;28;20050;-74
2024/02/16 22:46:08;;;;;;;5.18;4.68;;;;;;;;;;10327627;28;20042;-74
2024/02/16 22:51:11;;;;;;;6.50;5.30;;;;;;;;;;10315515;28;20043;-74
2024/02/16 22:56:19;;;;;;;8.93;7.38;;;;;;;;;;10300386;28;20037;-74
2024/02/16 23:01:22;;;;;;;6.32;4.95;;;;;;;;;;10324742;28;20294;-74
2024/02/16 23:06:25;;;;;;;3.88;3.42;;;;;;;;;;10321287;28;20468;-74
2024/02/16 23:11:30;;;;;;;5.60;4.47;;;;;;;;;;10326449;28;20641;-76
2024/02/16 23:16:33;;;;;;;4.07;3.28;;;;;;;;;;10323429;28;20761;-76
2024/02/16 23:21:37;;;;;;;4.05;3.45;;;;;;;;;;10324192;28;20073;-76
2024/02/16 23:26:41;;;;;;;3.70;2.97;;;;;;;;;;10322398;28;20046;-76
2024/02/16 23:31:44;;;;;;;3.65;3.35;;;;;;;;;;10321079;28;20496;-75
2024/02/16 23:36:48;;;;;;;3.92;3.33;;;;;;;;;;10316591;28;20062;-75
2024/02/16 23:41:53;;;;;;;4.57;3.67;;;;;;;;;;10321321;28;20046;-75
2024/02/16 23:46:56;;;;;;;5.20;4.07;;;;;;;;;;10322783;28;20058;-76
2024/02/16 23:51:59;;;;;;;4.63;3.78;;;;;;;;;;10320839;28;20804;-75
2024/02/16 23:57:04;;;;;;;4.45;3.47;;;;;;;;;;10318608;28;20046;-75
